Погода Хороневона 2 недели

Смоленская область, Россия

25 мая-07 июня
  • 25мая
    Сегодня
    +10°
    +24°
    Ясно и безоблачно
    ВремяПогодаТемператураВлажностьДавлениеВетер, м/сВероятность осадков
    00:00Ясно и безоблачно+11°C55 %756 мм3.0 м/с2 %
    03:00Ясно и безоблачно+9°C59 %756 мм2.8 м/с2 %
    06:00Ясно и безоблачно+10°C62 %756 мм2.9 м/с2 %
    09:00Ясно и безоблачно+17°C57 %756 мм2.6 м/с2 %
    12:00Ясно и безоблачно+22°C44 %755 мм2.7 м/с2 %
    15:00Ясно и безоблачно+23°C38 %755 мм2.7 м/с2 %
    18:00Ясно и безоблачно+23°C38 %753 мм2.0 м/с2 %
    21:00Ясно и безоблачно+17°C60 %753 мм2.3 м/с2 %
  • 26мая
    Воскресенье
    +11°
    +26°
    Небольшая облачность
    ВремяПогодаТемператураВлажностьДавлениеВетер, м/сВероятность осадков
    00:00Ясно и безоблачно+12°C72 %753 мм2.8 м/с2 %
    03:00Практически безоблачно+11°C77 %753 мм2.9 м/с2 %
    06:00Небольшая облачность+12°C71 %753 мм1.3 м/с2 %
    09:00Небольшая облачность+20°C49 %754 мм1.6 м/с2 %
    12:00Облачно с прояснениями+24°C35 %753 мм1.6 м/с2 %
    15:00Небольшая облачность+25°C28 %752 мм2.9 м/с2 %
    18:00Практически безоблачно+24°C38 %752 мм5.7 м/с1 %
    21:00Практически безоблачно+21°C48 %752 мм1.0 м/с2 %
  • 27мая
    Понедельник
    +12°
    +25°
    Небольшая облачность
    ВремяПогодаТемператураВлажностьДавлениеВетер, м/сВероятность осадков
    00:00Ясно и безоблачно+17°C60 %752 мм0.7 м/с2 %
    03:00Ясно и безоблачно+15°C67 %752 мм1.1 м/с2 %
    06:00Ясно и безоблачно+13°C78 %752 мм1.6 м/с2 %
    09:00Ясно и безоблачно+21°C54 %753 мм0.9 м/с2 %
    12:00Практически безоблачно+24°C38 %753 мм1.5 м/с4 %
    15:00Небольшая облачность+24°C38 %752 мм1.8 м/с28 %
    18:00Практически безоблачно+23°C42 %751 мм1.0 м/с27 %
    21:00Практически безоблачно+19°C65 %751 мм2.1 м/с6 %
  • 28мая
    Вторник
    +13°
    +26°
    Практически безоблачно
    ВремяПогодаТемператураВлажностьДавлениеВетер, м/сВероятность осадков
    00:00Ясно и безоблачно+16°C73 %751 мм2.8 м/с2 %
    03:00Ясно и безоблачно+13°C89 %751 мм1.9 м/с2 %
    06:00Практически безоблачно+14°C88 %750 мм2.0 м/с2 %
    09:00Ясно и безоблачно+21°C62 %751 мм2.0 м/с2 %
    12:00Ясно и безоблачно+24°C50 %750 мм2.4 м/с4 %
    15:00Практически безоблачно+26°C45 %749 мм1.7 м/с17 %
    18:00Практически безоблачно+23°C55 %748 мм1.9 м/с43 %
    21:00Практически безоблачно+20°C74 %748 мм3.5 м/с16 %
  • 29мая
    Среда
    +12°
    +27°
    Практически безоблачно
    ВремяПогодаТемператураВлажностьДавлениеВетер, м/сВероятность осадков
    00:00Ясно и безоблачно+15°C86 %747 мм2.8 м/с2 %
    03:00Ясно и безоблачно+13°C81 %747 мм2.3 м/с2 %
    06:00Облачно с прояснениями+14°C74 %747 мм2.2 м/с2 %
    09:00Ясно и безоблачно+21°C56 %746 мм2.1 м/с2 %
    12:00Небольшая облачность+25°C36 %746 мм1.7 м/с10 %
    15:00Практически безоблачно+26°C33 %746 мм1.9 м/с23 %
    18:00Ясно и безоблачно+26°C36 %745 мм2.5 м/с18 %
    21:00Практически безоблачно+20°C57 %744 мм1.9 м/с4 %
Мы используем cookies
Соглашаюсь